sensor_id;sensor_type;location;lat;lon;timestamp;pressure;altitude;pressure_sealevel;temperature;humidity
54854;BME280;40747;49.480;8.658;2023-12-14T00:01:25;99267.28;;;8.34;100.00
54854;BME280;40747;49.480;8.658;2023-12-14T00:03:51;99262.16;;;8.31;100.00
54854;BME280;40747;49.480;8.658;2023-12-14T00:06:16;99270.13;;;8.28;100.00
54854;BME280;40747;49.480;8.658;2023-12-14T00:08:41;99273.78;;;8.24;100.00
54854;BME280;40747;49.480;8.658;2023-12-14T00:11:08;99285.25;;;8.22;100.00
54854;BME280;40747;49.480;8.658;2023-12-14T00:13:33;99264.03;;;8.04;100.00
54854;BME280;40747;49.480;8.658;2023-12-14T00:15:59;99287.56;;;8.07;100.00
54854;BME280;40747;49.480;8.658;2023-12-14T00:18:25;99292.78;;;8.07;100.00
54854;BME280;40747;49.480;8.658;2023-12-14T00:20:50;99297.97;;;8.09;100.00
54854;BME280;40747;49.480;8.658;2023-12-14T00:23:16;99300.94;;;7.99;100.00
54854;BME280;40747;49.480;8.658;2023-12-14T00:25:41;99305.38;;;7.97;100.00
54854;BME280;40747;49.480;8.658;2023-12-14T00:28:07;99301.72;;;8.01;100.00
54854;BME280;40747;49.480;8.658;2023-12-14T00:30:32;99310.25;;;8.08;100.00
54854;BME280;40747;49.480;8.658;2023-12-14T00:32:57;99297.97;;;8.09;100.00
54854;BME280;40747;49.480;8.658;2023-12-14T00:35:22;99306.66;;;8.11;100.00
54854;BME280;40747;49.480;8.658;2023-12-14T00:37:48;99313.56;;;8.13;100.00
54854;BME280;40747;49.480;8.658;2023-12-14T00:40:13;99314.25;;;8.18;100.00
54854;BME280;40747;49.480;8.658;2023-12-14T00:42:38;99315.22;;;8.16;100.00
54854;BME280;40747;49.480;8.658;2023-12-14T00:45:04;99305.63;;;8.15;100.00
54854;BME280;40747;49.480;8.658;2023-12-14T00:47:29;99314.94;;;8.24;100.00
54854;BME280;40747;49.480;8.658;2023-12-14T00:49:55;99323.50;;;8.27;100.00
54854;BME280;40747;49.480;8.658;2023-12-14T00:52:20;99331.16;;;8.33;100.00
54854;BME280;40747;49.480;8.658;2023-12-14T00:54:45;99333.72;;;8.35;100.00
54854;BME280;40747;49.480;8.658;2023-12-14T00:57:10;99341.78;;;8.30;100.00
54854;BME280;40747;49.480;8.658;2023-12-14T00:59:36;99342.75;;;8.28;100.00
54854;BME280;40747;49.480;8.658;2023-12-14T01:02:01;99347.19;;;8.26;100.00
54854;BME280;40747;49.480;8.658;2023-12-14T01:04:26;99350.56;;;8.29;100.00
54854;BME280;40747;49.480;8.658;2023-12-14T01:06:51;99359.47;;;8.25;100.00
54854;BME280;40747;49.480;8.658;2023-12-14T01:09:17;99366.31;;;8.29;100.00
54854;BME280;40747;49.480;8.658;2023-12-14T01:11:42;99372.47;;;8.28;100.00
54854;BME280;40747;49.480;8.658;2023-12-14T01:14:07;99375.16;;;8.27;100.00
54854;BME280;40747;49.480;8.658;2023-12-14T01:16:33;99385.84;;;8.20;100.00
54854;BME280;40747;49.480;8.658;2023-12-14T01:18:58;99321.78;;;7.79;100.00
54854;BME280;40747;49.480;8.658;2023-12-14T01:21:24;99390.34;;;8.17;100.00
54854;BME280;40747;49.480;8.658;2023-12-14T01:23:49;99402.41;;;8.23;100.00
54854;BME280;40747;49.480;8.658;2023-12-14T01:26:14;99399.78;;;8.23;100.00
54854;BME280;40747;49.480;8.658;2023-12-14T01:28:40;99410.16;;;8.26;100.00
54854;BME280;40747;49.480;8.658;2023-12-14T01:31:05;99410.09;;;8.27;100.00
54854;BME280;40747;49.480;8.658;2023-12-14T01:33:30;99407.47;;;8.27;100.00
54854;BME280;40747;49.480;8.658;2023-12-14T01:35:55;99410.06;;;8.29;100.00
54854;BME280;40747;49.480;8.658;2023-12-14T01:38:21;99411.88;;;8.27;100.00
54854;BME280;40747;49.480;8.658;2023-12-14T01:40:46;99416.97;;;8.31;100.00
54854;BME280;40747;49.480;8.658;2023-12-14T01:43:11;99425.97;;;8.24;100.00
54854;BME280;40747;49.480;8.658;2023-12-14T01:45:37;99435.75;;;8.19;100.00
54854;BME280;40747;49.480;8.658;2023-12-14T01:48:03;99429.75;;;8.15;100.00
54854;BME280;40747;49.480;8.658;2023-12-14T01:50:29;99435.81;;;8.17;100.00
54854;BME280;40747;49.480;8.658;2023-12-14T01:52:54;99438.31;;;8.20;100.00
54854;BME280;40747;49.480;8.658;2023-12-14T01:55:19;99436.72;;;8.16;100.00
54854;BME280;40747;49.480;8.658;2023-12-14T01:57:45;99447.91;;;8.22;100.00
54854;BME280;40747;49.480;8.658;2023-12-14T02:00:19;99450.13;;;8.34;100.00
54854;BME280;40747;49.480;8.658;2023-12-14T02:02:47;99436.66;;;8.18;100.00
54854;BME280;40747;49.480;8.658;2023-12-14T02:05:13;99464.34;;;8.27;100.00
54854;BME280;40747;49.480;8.658;2023-12-14T02:07:38;99463.44;;;8.28;100.00
54854;BME280;40747;49.480;8.658;2023-12-14T02:10:03;99466.81;;;8.31;100.00
54854;BME280;40747;49.480;8.658;2023-12-14T02:12:29;99467.03;;;8.25;100.00
54854;BME280;40747;49.480;8.658;2023-12-14T02:14:56;99473.75;;;8.32;100.00
54854;BME280;40747;49.480;8.658;2023-12-14T02:17:21;99479.06;;;8.31;100.00
54854;BME280;40747;49.480;8.658;2023-12-14T02:19:47;99474.69;;;8.31;100.00
54854;BME280;40747;49.480;8.658;2023-12-14T02:22:12;99481.06;;;8.24;100.00
54854;BME280;40747;49.480;8.658;2023-12-14T02:24:37;99486.19;;;8.27;100.00
54854;BME280;40747;49.480;8.658;2023-12-14T02:27:02;99477.59;;;8.24;100.00
54854;BME280;40747;49.480;8.658;2023-12-14T02:29:28;99481.91;;;8.25;100.00
54854;BME280;40747;49.480;8.658;2023-12-14T02:31:53;99489.81;;;8.23;100.00
54854;BME280;40747;49.480;8.658;2023-12-14T02:34:19;99495.97;;;8.22;100.00
54854;BME280;40747;49.480;8.658;2023-12-14T02:36:45;99488.09;;;8.22;100.00
54854;BME280;40747;49.480;8.658;2023-12-14T02:39:11;99501.91;;;8.29;100.00
54854;BME280;40747;49.480;8.658;2023-12-14T02:41:36;99499.28;;;8.27;100.00
54854;BME280;40747;49.480;8.658;2023-12-14T02:44:01;99503.56;;;8.31;100.00
54854;BME280;40747;49.480;8.658;2023-12-14T02:46:26;99502.69;;;8.31;100.00
54854;BME280;40747;49.480;8.658;2023-12-14T02:48:52;99509.75;;;8.29;100.00
54854;BME280;40747;49.480;8.658;2023-12-14T02:51:17;99511.56;;;8.27;100.00
54854;BME280;40747;49.480;8.658;2023-12-14T02:53:42;99519.66;;;8.20;100.00
54854;BME280;40747;49.480;8.658;2023-12-14T02:56:09;99516.88;;;8.25;100.00
54854;BME280;40747;49.480;8.658;2023-12-14T02:58:34;99526.56;;;8.23;100.00
54854;BME280;40747;49.480;8.658;2023-12-14T03:00:59;99536.00;;;8.29;100.00
54854;BME280;40747;49.480;8.658;2023-12-14T03:03:25;99531.47;;;8.32;100.00
54854;BME280;40747;49.480;8.658;2023-12-14T03:05:50;99536.72;;;8.32;100.00
54854;BME280;40747;49.480;8.658;2023-12-14T03:08:15;99528.91;;;8.31;100.00
54854;BME280;40747;49.480;8.658;2023-12-14T03:10:41;99533.25;;;8.32;100.00
54854;BME280;40747;49.480;8.658;2023-12-14T03:13:06;99544.72;;;8.29;100.00
54854;BME280;40747;49.480;8.658;2023-12-14T03:15:31;99538.06;;;8.19;100.00
54854;BME280;40747;49.480;8.658;2023-12-14T03:17:56;99554.47;;;8.26;100.00
54854;BME280;40747;49.480;8.658;2023-12-14T03:20:22;99552.59;;;8.29;100.00
54854;BME280;40747;49.480;8.658;2023-12-14T03:22:48;99549.00;;;8.32;100.00
54854;BME280;40747;49.480;8.658;2023-12-14T03:25:13;99554.25;;;8.32;100.00
54854;BME280;40747;49.480;8.658;2023-12-14T03:27:38;99564.75;;;8.32;100.00
54854;BME280;40747;49.480;8.658;2023-12-14T03:30:04;99569.94;;;8.33;100.00
54854;BME280;40747;49.480;8.658;2023-12-14T03:32:33;99571.81;;;8.30;100.00
54854;BME280;40747;49.480;8.658;2023-12-14T03:34:58;99580.69;;;8.26;100.00
54854;BME280;40747;49.480;8.658;2023-12-14T03:37:24;99577.31;;;8.22;100.00
54854;BME280;40747;49.480;8.658;2023-12-14T03:39:49;99555.66;;;8.15;100.00
54854;BME280;40747;49.480;8.658;2023-12-14T03:42:14;99596.13;;;8.35;100.00
54854;BME280;40747;49.480;8.658;2023-12-14T03:44:40;99589.06;;;8.37;100.00
54854;BME280;40747;49.480;8.658;2023-12-14T03:47:06;99601.22;;;8.40;100.00
54854;BME280;40747;49.480;8.658;2023-12-14T03:49:36;99601.16;;;8.41;100.00
54854;BME280;40747;49.480;8.658;2023-12-14T03:52:02;99598.03;;;8.30;100.00
54854;BME280;40747;49.480;8.658;2023-12-14T03:54:27;99603.50;;;8.24;100.00
54854;BME280;40747;49.480;8.658;2023-12-14T03:56:53;99604.31;;;8.26;100.00
54854;BME280;40747;49.480;8.658;2023-12-14T03:59:18;99607.09;;;8.21;100.00
54854;BME280;40747;49.480;8.658;2023-12-14T04:01:43;99609.59;;;8.24;100.00
54854;BME280;40747;49.480;8.658;2023-12-14T04:04:08;99606.94;;;8.26;100.00
54854;BME280;40747;49.480;8.658;2023-12-14T04:06:34;99621.66;;;8.30;100.00
54854;BME280;40747;49.480;8.658;2023-12-14T04:08:59;99616.38;;;8.31;100.00
54854;BME280;40747;49.480;8.658;2023-12-14T04:11:24;99620.69;;;8.32;100.00
54854;BME280;40747;49.480;8.658;2023-12-14T04:13:50;99624.13;;;8.34;100.00
54854;BME280;40747;49.480;8.658;2023-12-14T04:16:18;99624.38;;;8.27;100.00
54854;BME280;40747;49.480;8.658;2023-12-14T04:18:44;99633.09;;;8.27;100.00
54854;BME280;40747;49.480;8.658;2023-12-14T04:21:09;99633.09;;;8.29;100.00
54854;BME280;40747;49.480;8.658;2023-12-14T04:23:34;99633.09;;;8.27;100.00
54854;BME280;40747;49.480;8.658;2023-12-14T04:25:59;99635.03;;;8.22;100.00
54854;BME280;40747;49.480;8.658;2023-12-14T04:28:25;99642.75;;;8.27;100.00
54854;BME280;40747;49.480;8.658;2023-12-14T04:30:50;99640.19;;;8.25;100.00
54854;BME280;40747;49.480;8.658;2023-12-14T04:33:15;99647.91;;;8.30;100.00
54854;BME280;40747;49.480;8.658;2023-12-14T04:35:40;99640.19;;;8.25;100.00
54854;BME280;40747;49.480;8.658;2023-12-14T04:38:06;99649.81;;;8.25;100.00
54854;BME280;40747;49.480;8.658;2023-12-14T04:40:31;99655.28;;;8.18;100.00
54854;BME280;40747;49.480;8.658;2023-12-14T04:42:58;99677.06;;;8.20;100.00
54854;BME280;40747;49.480;8.658;2023-12-14T04:45:23;99667.75;;;8.10;100.00
54854;BME280;40747;49.480;8.658;2023-12-14T04:47:48;99671.34;;;8.08;100.00
54854;BME280;40747;49.480;8.658;2023-12-14T04:50:13;99683.69;;;8.04;100.00
54854;BME280;40747;49.480;8.658;2023-12-14T04:52:41;99675.00;;;8.02;100.00
54854;BME280;40747;49.480;8.658;2023-12-14T04:55:07;99683.13;;;7.94;100.00
54854;BME280;40747;49.480;8.658;2023-12-14T04:57:33;99686.53;;;7.96;100.00
54854;BME280;40747;49.480;8.658;2023-12-14T04:59:58;99687.25;;;8.01;100.00
54854;BME280;40747;49.480;8.658;2023-12-14T05:02:23;99692.50;;;8.01;100.00
54854;BME280;40747;49.480;8.658;2023-12-14T05:04:49;99702.94;;;8.03;100.00
54854;BME280;40747;49.480;8.658;2023-12-14T05:07:15;99697.91;;;7.97;100.00
54854;BME280;40747;49.480;8.658;2023-12-14T05:09:40;99708.94;;;8.07;100.00
54854;BME280;40747;49.480;8.658;2023-12-14T05:12:05;99719.38;;;8.10;100.00
54854;BME280;40747;49.480;8.658;2023-12-14T05:14:31;99726.34;;;8.11;100.00
54854;BME280;40747;49.480;8.658;2023-12-14T05:16:56;99728.13;;;8.09;100.00
54854;BME280;40747;49.480;8.658;2023-12-14T05:19:21;99707.50;;;7.96;100.00
54854;BME280;40747;49.480;8.658;2023-12-14T05:21:47;99724.06;;;7.98;100.00
54854;BME280;40747;49.480;8.658;2023-12-14T05:24:12;99737.25;;;7.95;100.00
54854;BME280;40747;49.480;8.658;2023-12-14T05:26:38;99737.50;;;7.23;100.00
54854;BME280;40747;49.480;8.658;2023-12-14T05:29:03;99738.06;;;6.29;100.00
54854;BME280;40747;49.480;8.658;2023-12-14T05:31:28;99754.38;;;5.98;100.00
54854;BME280;40747;49.480;8.658;2023-12-14T05:33:54;99764.97;;;5.92;100.00
54854;BME280;40747;49.480;8.658;2023-12-14T05:36:19;99752.00;;;5.84;100.00
54854;BME280;40747;49.480;8.658;2023-12-14T05:38:44;99775.50;;;5.87;100.00
54854;BME280;40747;49.480;8.658;2023-12-14T05:41:10;99775.56;;;5.83;100.00
54854;BME280;40747;49.480;8.658;2023-12-14T05:43:35;99783.47;;;5.81;100.00
54854;BME280;40747;49.480;8.658;2023-12-14T05:46:02;99776.63;;;5.74;100.00
54854;BME280;40747;49.480;8.658;2023-12-14T05:48:29;99793.19;;;5.74;100.00
54854;BME280;40747;49.480;8.658;2023-12-14T05:50:55;99783.81;;;5.63;100.00
54854;BME280;40747;49.480;8.658;2023-12-14T05:53:21;99802.09;;;5.64;100.00
54854;BME280;40747;49.480;8.658;2023-12-14T05:55:46;99808.16;;;5.65;100.00
54854;BME280;40747;49.480;8.658;2023-12-14T05:58:12;99808.13;;;5.68;100.00
54854;BME280;40747;49.480;8.658;2023-12-14T06:00:37;99813.13;;;5.79;100.00
54854;BME280;40747;49.480;8.658;2023-12-14T06:03:03;99816.59;;;5.81;100.00
54854;BME280;40747;49.480;8.658;2023-12-14T06:05:29;99814.84;;;5.80;100.00
54854;BME280;40747;49.480;8.658;2023-12-14T06:07:54;99819.13;;;5.84;100.00
54854;BME280;40747;49.480;8.658;2023-12-14T06:10:20;99822.78;;;5.75;100.00
54854;BME280;40747;49.480;8.658;2023-12-14T06:12:46;99831.53;;;5.72;100.00
54854;BME280;40747;49.480;8.658;2023-12-14T06:15:11;99838.63;;;5.66;100.00
54854;BME280;40747;49.480;8.658;2023-12-14T06:17:37;99841.25;;;5.66;100.00
54854;BME280;40747;49.480;8.658;2023-12-14T06:20:05;99824.75;;;5.62;100.00
54854;BME280;40747;49.480;8.658;2023-12-14T06:22:31;99839.47;;;5.68;100.00
54854;BME280;40747;49.480;8.658;2023-12-14T06:24:57;99849.16;;;5.63;100.00
54854;BME280;40747;49.480;8.658;2023-12-14T06:27:22;99857.78;;;5.66;100.00
54854;BME280;40747;49.480;8.658;2023-12-14T06:29:51;99862.25;;;5.60;100.00
54854;BME280;40747;49.480;8.658;2023-12-14T06:32:16;99869.09;;;5.67;100.00
54854;BME280;40747;49.480;8.658;2023-12-14T06:34:42;99857.34;;;5.91;100.00
54854;BME280;40747;49.480;8.658;2023-12-14T06:37:07;99878.66;;;6.16;100.00
54854;BME280;40747;49.480;8.658;2023-12-14T06:39:33;99886.91;;;6.40;100.00
54854;BME280;40747;49.480;8.658;2023-12-14T06:41:58;99886.50;;;6.60;100.00
54854;BME280;40747;49.480;8.658;2023-12-14T06:44:23;99894.81;;;6.79;100.00
54854;BME280;40747;49.480;8.658;2023-12-14T06:46:51;99892.84;;;6.89;100.00
54854;BME280;40747;49.480;8.658;2023-12-14T06:49:16;99902.47;;;6.88;100.00
54854;BME280;40747;49.480;8.658;2023-12-14T06:51:42;99899.53;;;7.02;100.00
54854;BME280;40747;49.480;8.658;2023-12-14T06:54:07;99898.50;;;7.08;100.00
54854;BME280;40747;49.480;8.658;2023-12-14T06:56:32;99882.72;;;7.13;100.00
54854;BME280;40747;49.480;8.658;2023-12-14T06:58:57;99907.47;;;7.37;100.00
54854;BME280;40747;49.480;8.658;2023-12-14T07:01:23;99910.75;;;7.45;100.00
54854;BME280;40747;49.480;8.658;2023-12-14T07:03:48;99922.00;;;7.49;100.00
54854;BME280;40747;49.480;8.658;2023-12-14T07:06:14;99927.84;;;7.60;100.00
54854;BME280;40747;49.480;8.658;2023-12-14T07:08:40;99935.63;;;7.63;100.00
54854;BME280;40747;49.480;8.658;2023-12-14T07:11:07;99925.25;;;7.60;100.00
54854;BME280;40747;49.480;8.658;2023-12-14T07:13:32;99936.50;;;7.64;100.00
54854;BME280;40747;49.480;8.658;2023-12-14T07:15:57;99941.66;;;7.67;100.00
54854;BME280;40747;49.480;8.658;2023-12-14T07:18:22;99948.50;;;7.74;100.00
54854;BME280;40747;49.480;8.658;2023-12-14T07:20:48;99951.03;;;7.77;100.00
54854;BME280;40747;49.480;8.658;2023-12-14T07:23:13;99945.72;;;7.80;100.00
54854;BME280;40747;49.480;8.658;2023-12-14T07:25:38;99963.03;;;7.86;100.00
54854;BME280;40747;49.480;8.658;2023-12-14T07:28:03;99969.06;;;7.90;100.00
54854;BME280;40747;49.480;8.658;2023-12-14T07:30:29;99965.66;;;7.86;100.00
54854;BME280;40747;49.480;8.658;2023-12-14T07:32:54;99968.28;;;7.86;100.00
54854;BME280;40747;49.480;8.658;2023-12-14T07:35:19;99978.63;;;7.92;100.00
54854;BME280;40747;49.480;8.658;2023-12-14T07:37:45;99979.53;;;7.91;100.00
54854;BME280;40747;49.480;8.658;2023-12-14T07:40:10;99985.84;;;7.84;100.00
54854;BME280;40747;49.480;8.658;2023-12-14T07:42:35;99985.91;;;7.81;100.00
54854;BME280;40747;49.480;8.658;2023-12-14T07:45:01;99990.19;;;7.83;100.00
54854;BME280;40747;49.480;8.658;2023-12-14T07:47:26;99997.09;;;7.87;100.00
54854;BME280;40747;49.480;8.658;2023-12-14T07:49:51;99996.13;;;7.92;100.00
54854;BME280;40747;49.480;8.658;2023-12-14T07:52:16;100002.94;;;7.99;100.00
54854;BME280;40747;49.480;8.658;2023-12-14T07:54:42;100001.94;;;8.04;100.00
54854;BME280;40747;49.480;8.658;2023-12-14T07:57:08;100013.16;;;8.10;100.00
54854;BME280;40747;49.480;8.658;2023-12-14T07:59:33;100016.59;;;8.12;100.00
54854;BME280;40747;49.480;8.658;2023-12-14T08:01:58;100016.59;;;8.12;100.00
54854;BME280;40747;49.480;8.658;2023-12-14T08:04:24;100025.94;;;8.24;100.00
54854;BME280;40747;49.480;8.658;2023-12-14T08:06:49;100036.34;;;8.27;100.00
54854;BME280;40747;49.480;8.658;2023-12-14T08:09:14;100040.66;;;8.29;100.00
54854;BME280;40747;49.480;8.658;2023-12-14T08:11:40;100039.84;;;8.26;100.00
54854;BME280;40747;49.480;8.658;2023-12-14T08:14:05;100036.44;;;8.22;100.00
54854;BME280;40747;49.480;8.658;2023-12-14T08:16:31;100046.88;;;8.25;100.00
54854;BME280;40747;49.480;8.658;2023-12-14T08:18:56;100052.00;;;8.30;100.00
54854;BME280;40747;49.480;8.658;2023-12-14T08:21:21;100065.84;;;8.35;100.00
54854;BME280;40747;49.480;8.658;2023-12-14T08:23:46;100060.59;;;8.35;100.00
54854;BME280;40747;49.480;8.658;2023-12-14T08:26:12;100063.28;;;8.33;100.00
54854;BME280;40747;49.480;8.658;2023-12-14T08:28:41;100070.09;;;8.41;100.00
54854;BME280;40747;49.480;8.658;2023-12-14T08:31:06;100088.38;;;8.45;100.00
54854;BME280;40747;49.480;8.658;2023-12-14T08:33:33;100093.56;;;8.48;100.00
54854;BME280;40747;49.480;8.658;2023-12-14T08:35:58;100095.13;;;8.56;100.00
54854;BME280;40747;49.480;8.658;2023-12-14T08:38:24;100099.47;;;8.57;100.00
54854;BME280;40747;49.480;8.658;2023-12-14T08:40:49;100115.31;;;8.53;100.00
54854;BME280;40747;49.480;8.658;2023-12-14T08:43:16;100121.53;;;8.49;100.00
54854;BME280;40747;49.480;8.658;2023-12-14T08:45:41;100118.13;;;8.46;100.00
54854;BME280;40747;49.480;8.658;2023-12-14T08:48:07;100132.00;;;8.51;100.00
54854;BME280;40747;49.480;8.658;2023-12-14T08:50:32;100130.31;;;8.48;100.00
54854;BME280;40747;49.480;8.658;2023-12-14T08:52:57;100139.97;;;8.48;100.00
54854;BME280;40747;49.480;8.658;2023-12-14T08:55:26;100150.47;;;8.48;100.00
54854;BME280;40747;49.480;8.658;2023-12-14T08:57:51;100138.34;;;8.41;100.00
54854;BME280;40747;49.480;8.658;2023-12-14T09:00:17;100147.00;;;8.46;100.00
54854;BME280;40747;49.480;8.658;2023-12-14T09:02:44;100159.00;;;8.56;100.00
54854;BME280;40747;49.480;8.658;2023-12-14T09:05:13;100155.34;;;8.62;100.00
54854;BME280;40747;49.480;8.658;2023-12-14T09:07:39;100166.69;;;8.64;100.00
54854;BME280;40747;49.480;8.658;2023-12-14T09:10:05;100172.56;;;8.74;100.00
54854;BME280;40747;49.480;8.658;2023-12-14T09:12:32;100177.72;;;8.77;100.00
54854;BME280;40747;49.480;8.658;2023-12-14T09:14:58;100177.66;;;8.80;100.00
54854;BME280;40747;49.480;8.658;2023-12-14T09:17:23;100173.19;;;8.83;100.00
54854;BME280;40747;49.480;8.658;2023-12-14T09:19:48;100189.88;;;8.81;100.00
54854;BME280;40747;49.480;8.658;2023-12-14T09:22:14;100195.16;;;8.79;100.00
54854;BME280;40747;49.480;8.658;2023-12-14T09:24:39;100197.69;;;8.84;100.00
54854;BME280;40747;49.480;8.658;2023-12-14T09:27:04;100201.97;;;8.88;100.00
54854;BME280;40747;49.480;8.658;2023-12-14T09:29:29;100197.81;;;8.79;100.00
54854;BME280;40747;49.480;8.658;2023-12-14T09:31:55;100208.19;;;8.84;100.00
54854;BME280;40747;49.480;8.658;2023-12-14T09:34:20;100212.56;;;8.85;100.00
54854;BME280;40747;49.480;8.658;2023-12-14T09:36:45;100212.81;;;8.74;100.00
54854;BME280;40747;49.480;8.658;2023-12-14T09:39:11;100230.09;;;8.83;100.00
54854;BME280;40747;49.480;8.658;2023-12-14T09:41:37;100234.41;;;8.85;100.00
54854;BME280;40747;49.480;8.658;2023-12-14T09:44:04;100228.22;;;8.88;100.00
54854;BME280;40747;49.480;8.658;2023-12-14T09:46:30;100243.78;;;8.96;100.00
54854;BME280;40747;49.480;8.658;2023-12-14T09:48:57;100232.38;;;8.97;100.00
54854;BME280;40747;49.480;8.658;2023-12-14T09:51:22;100240.97;;;9.04;100.00
54854;BME280;40747;49.480;8.658;2023-12-14T09:53:49;100254.03;;;9.07;100.00
54854;BME280;40747;49.480;8.658;2023-12-14T09:56:14;100248.66;;;9.11;100.00
54854;BME280;40747;49.480;8.658;2023-12-14T09:58:39;100266.19;;;9.11;100.00
54854;BME280;40747;49.480;8.658;2023-12-14T10:01:21;100258.28;;;9.12;100.00
54854;BME280;40747;49.480;8.658;2023-12-14T10:03:46;100263.63;;;9.08;100.00
54854;BME280;40747;49.480;8.658;2023-12-14T10:06:11;100265.31;;;9.12;100.00
54854;BME280;40747;49.480;8.658;2023-12-14T10:08:37;100261.72;;;9.14;100.00
54854;BME280;40747;49.480;8.658;2023-12-14T10:11:14;100272.75;;;9.29;100.00
54854;BME280;40747;49.480;8.658;2023-12-14T10:13:40;100275.56;;;9.21;100.00
54854;BME280;40747;49.480;8.658;2023-12-14T10:16:06;100278.94;;;9.26;100.00
54854;BME280;40747;49.480;8.658;2023-12-14T10:18:32;100278.84;;;9.29;100.00
54854;BME280;40747;49.480;8.658;2023-12-14T10:20:59;100281.91;;;9.12;100.00
54854;BME280;40747;49.480;8.658;2023-12-14T10:23:27;100280.34;;;9.05;100.00
54854;BME280;40747;49.480;8.658;2023-12-14T10:25:52;100278.75;;;8.99;100.00
54854;BME280;40747;49.480;8.658;2023-12-14T10:28:18;100284.75;;;9.05;100.00
54854;BME280;40747;49.480;8.658;2023-12-14T10:30:43;100281.84;;;7.98;100.00
54854;BME280;40747;49.480;8.658;2023-12-14T10:33:08;100288.59;;;7.19;100.00
54854;BME280;40747;49.480;8.658;2023-12-14T10:35:34;100292.41;;;6.99;100.00
54854;BME280;40747;49.480;8.658;2023-12-14T10:38:04;100292.03;;;7.21;100.00
54854;BME280;40747;49.480;8.658;2023-12-14T10:40:31;100276.72;;;6.98;100.00
54854;BME280;40747;49.480;8.658;2023-12-14T10:42:59;100298.22;;;7.17;100.00
54854;BME280;40747;49.480;8.658;2023-12-14T10:45:29;100302.53;;;7.19;100.00
54854;BME280;40747;49.480;8.658;2023-12-14T10:47:54;100306.47;;;7.47;100.00
54854;BME280;40747;49.480;8.658;2023-12-14T10:50:21;100308.34;;;7.38;100.00
54854;BME280;40747;49.480;8.658;2023-12-14T10:52:47;100307.59;;;7.32;100.00
54854;BME280;40747;49.480;8.658;2023-12-14T10:55:30;100316.16;;;7.40;100.00
54854;BME280;40747;49.480;8.658;2023-12-14T10:57:59;100320.56;;;7.40;100.00
54854;BME280;40747;49.480;8.658;2023-12-14T11:00:26;100326.75;;;7.35;100.00
54854;BME280;40747;49.480;8.658;2023-12-14T11:02:51;100324.09;;;7.37;100.00
54854;BME280;40747;49.480;8.658;2023-12-14T11:05:18;100318.91;;;7.32;100.00
54854;BME280;40747;49.480;8.658;2023-12-14T11:10:14;100328.84;;;7.65;100.00
54854;BME280;40747;49.480;8.658;2023-12-14T11:15:22;100334.38;;;7.48;100.00
54854;BME280;40747;49.480;8.658;2023-12-14T11:25:43;100345.69;;;7.50;100.00
54854;BME280;40747;49.480;8.658;2023-12-14T11:28:09;100348.78;;;7.72;100.00
54854;BME280;40747;49.480;8.658;2023-12-14T11:30:35;100355.63;;;7.81;100.00
54854;BME280;40747;49.480;8.658;2023-12-14T11:33:02;100346.47;;;7.55;100.00
54854;BME280;40747;49.480;8.658;2023-12-14T11:35:27;100360.31;;;7.63;100.00
54854;BME280;40747;49.480;8.658;2023-12-14T11:37:53;100362.72;;;7.76;100.00
54854;BME280;40747;49.480;8.658;2023-12-14T11:40:18;100357.44;;;7.79;100.00
54854;BME280;40747;49.480;8.658;2023-12-14T11:43:04;100377.34;;;7.89;100.00
54854;BME280;40747;49.480;8.658;2023-12-14T11:45:33;100384.88;;;8.06;100.00
54854;BME280;40747;49.480;8.658;2023-12-14T11:47:59;100385.25;;;7.86;100.00
54854;BME280;40747;49.480;8.658;2023-12-14T11:50:26;100380.75;;;7.93;100.00
54854;BME280;40747;49.480;8.658;2023-12-14T11:52:52;100388.75;;;7.86;100.00
54854;BME280;40747;49.480;8.658;2023-12-14T11:55:18;100384.44;;;7.84;100.00
54854;BME280;40747;49.480;8.658;2023-12-14T11:57:48;100391.16;;;7.97;100.00
54854;BME280;40747;49.480;8.658;2023-12-14T12:00:14;100377.16;;;7.98;100.00
54854;BME280;40747;49.480;8.658;2023-12-14T12:02:40;100385.81;;;8.03;100.00
54854;BME280;40747;49.480;8.658;2023-12-14T12:05:06;100387.59;;;8.01;100.00
54854;BME280;40747;49.480;8.658;2023-12-14T12:07:32;100382.31;;;8.03;100.00
54854;BME280;40747;49.480;8.658;2023-12-14T12:09:58;100389.41;;;7.98;100.00
54854;BME280;40747;49.480;8.658;2023-12-14T12:12:24;100390.09;;;8.08;100.00
54854;BME280;40747;49.480;8.658;2023-12-14T12:14:49;100394.44;;;8.09;100.00
54854;BME280;40747;49.480;8.658;2023-12-14T12:17:18;100381.72;;;7.88;100.00
54854;BME280;40747;49.480;8.658;2023-12-14T12:19:45;100396.53;;;7.91;100.00
54854;BME280;40747;49.480;8.658;2023-12-14T12:22:10;100391.50;;;7.80;100.00
54854;BME280;40747;49.480;8.658;2023-12-14T12:24:36;100412.94;;;8.02;100.00
54854;BME280;40747;49.480;8.658;2023-12-14T12:27:01;100406.56;;;8.14;100.00
54854;BME280;40747;49.480;8.658;2023-12-14T12:29:26;100408.47;;;8.08;100.00
54854;BME280;40747;49.480;8.658;2023-12-14T12:31:51;100405.28;;;7.90;100.00
54854;BME280;40747;49.480;8.658;2023-12-14T12:34:17;100400.16;;;7.82;100.00
54854;BME280;40747;49.480;8.658;2023-12-14T12:36:43;100406.81;;;8.02;100.00
54854;BME280;40747;49.480;8.658;2023-12-14T12:39:08;100416.66;;;7.91;100.00
54854;BME280;40747;49.480;8.658;2023-12-14T12:41:34;100411.22;;;8.00;100.00
54854;BME280;40747;49.480;8.658;2023-12-14T12:44:02;100399.25;;;7.85;100.00
54854;BME280;40747;49.480;8.658;2023-12-14T12:46:32;100407.16;;;7.83;100.00
54854;BME280;40747;49.480;8.658;2023-12-14T12:49:04;100412.34;;;7.86;100.00
54854;BME280;40747;49.480;8.658;2023-12-14T12:51:30;100419.31;;;7.87;100.00
54854;BME280;40747;49.480;8.658;2023-12-14T12:53:57;100426.13;;;7.99;100.00
54854;BME280;40747;49.480;8.658;2023-12-14T12:56:23;100408.84;;;7.86;100.00
54854;BME280;40747;49.480;8.658;2023-12-14T12:58:49;100414.16;;;7.83;100.00
54854;BME280;40747;49.480;8.658;2023-12-14T13:01:15;100428.09;;;7.85;100.00